SCIC

General Freire Airport

Airport
ICAO code
SCIC
Summary
ICAO Region
CARSAM
ICAO Territory
Location

Curico, Maule

Serving
Curico
Elevation
722 ft
Coordinates
34° 58' 0" S , 71° 12' 59" W
KCC
Metar
Observation
SCIC 050500Z AUTO 25003KT 220V280 //// R/////// // FEW037 19/13 Q1013
Station
Curico
Date/Time
2023-02-05 06:00:00
Wind direction
250°
Wind speed
03 kts
Lowest cloud amount
few clouds
Temperature
19°C
Dew point
13°C
Humidity
68%
QNH
1013 hPa
Weather condition
n/a

Airport located on northeastern side of Curico, Maule, Chile.

Climatology

Temperate mediterranean climate (Köppen climate classification Csb)

Runways

Designator Length Width Surface Rops
1/19 800 18 ASP No/No

Airport map

Aerial View

SKYbrary Partners:

Safety knowledge contributed by: